TimePST,TemperatureF,Dew PointF,Humidity,Sea Level PressureIn,VisibilityMPH,Wind Direction,Wind SpeedMPH,Gust SpeedMPH,PrecipitationIn,Events,Conditions,WindDirDegrees,DateUTC
12:53 AM,30.9,28.9,92,30.49,10.0,ENE,5.8,-,N/A,,Overcast,70,2013-01-14 08:53:00
1:53 AM,30.9,28.9,92,30.49,10.0,ENE,4.6,-,N/A,,Overcast,70,2013-01-14 09:53:00
2:48 AM,32.0,28.4,87,30.47,10.0,NE,8.1,-,N/A,,Overcast,50,2013-01-14 10:48:00
2:53 AM,32.0,28.0,85,30.48,10.0,NE,6.9,-,N/A,,Overcast,50,2013-01-14 10:53:00
3:53 AM,32.0,28.0,85,30.50,10.0,East,5.8,-,N/A,,Overcast,80,2013-01-14 11:53:00
4:53 AM,30.9,28.0,89,30.50,10.0,ENE,4.6,-,N/A,,Overcast,60,2013-01-14 12:53:00
5:53 AM,30.0,28.0,92,30.49,10.0,ENE,8.1,-,N/A,,Overcast,70,2013-01-14 13:53:00
6:17 AM,30.2,28.4,93,30.49,10.0,East,6.9,-,N/A,,Overcast,80,2013-01-14 14:17:00
6:53 AM,30.0,27.0,88,30.50,9.0,NE,8.1,-,N/A,,Overcast,50,2013-01-14 14:53:00
7:53 AM,32.0,28.0,85,30.50,8.0,NE,6.9,-,N/A,,Overcast,50,2013-01-14 15:53:00
8:39 AM,32.0,28.4,87,30.49,10.0,NE,5.8,-,N/A,,Overcast,50,2013-01-14 16:39:00
8:53 AM,32.0,28.0,85,30.51,10.0,ENE,4.6,-,N/A,,Overcast,60,2013-01-14 16:53:00
9:25 AM,32.0,28.4,87,30.50,10.0,ENE,4.6,-,N/A,,Overcast,60,2013-01-14 17:25:00
9:53 AM,32.0,28.9,88,30.52,9.0,ENE,4.6,-,N/A,,Overcast,60,2013-01-14 17:53:00
10:19 AM,32.0,28.4,87,30.51,3.0,ENE,5.8,-,N/A,,Overcast,60,2013-01-14 18:19:00
10:27 AM,32.0,28.4,87,30.51,2.5,ENE,5.8,-,N/A,,Overcast,60,2013-01-14 18:27:00
10:53 AM,32.0,30.0,92,30.52,2.0,ENE,5.8,-,N/A,,Overcast,60,2013-01-14 18:53:00
11:18 AM,33.8,32.0,93,30.50,1.8,NE,6.9,-,N/A,,Overcast,40,2013-01-14 19:18:00
11:38 AM,33.8,33.8,100,30.49,2.5,ENE,5.8,-,N/A,,Overcast,60,2013-01-14 19:38:00
11:46 AM,33.8,33.8,100,30.49,1.8,ENE,5.8,-,N/A,,Overcast,70,2013-01-14 19:46:00
11:53 AM,33.1,32.0,96,30.50,1.5,ENE,6.9,-,N/A,,Overcast,70,2013-01-14 19:53:00
12:12 PM,33.8,33.8,100,30.48,1.2,ENE,6.9,-,N/A,,Overcast,70,2013-01-14 20:12:00
12:53 PM,34.0,33.1,96,30.49,1.5,NE,9.2,-,N/A,,Overcast,40,2013-01-14 20:53:00
1:31 PM,33.8,33.8,100,30.48,2.0,ENE,6.9,-,0.02,Rain,Light Rain,60,2013-01-14 21:31:00
1:53 PM,34.0,33.1,96,30.50,2.0,ENE,9.2,-,0.02,,Overcast,70,2013-01-14 21:53:00
2:01 PM,33.8,33.8,100,30.49,1.8,ENE,8.1,-,N/A,,Overcast,70,2013-01-14 22:01:00
2:13 PM,33.8,33.8,100,30.49,2.5,ENE,8.1,-,N/A,,Overcast,60,2013-01-14 22:13:00
2:43 PM,33.8,33.8,100,30.49,3.0,ENE,8.1,-,N/A,,Overcast,70,2013-01-14 22:43:00
2:53 PM,34.0,33.1,96,30.51,3.0,ENE,9.2,-,N/A,,Overcast,70,2013-01-14 22:53:00
3:53 PM,34.0,33.1,96,30.51,4.0,ENE,8.1,-,N/A,,Overcast,70,2013-01-14 23:53:00
4:46 PM,33.8,33.8,100,30.50,4.0,ENE,5.8,-,N/A,,Overcast,60,2013-01-15 00:46:00
4:53 PM,34.0,33.1,96,30.51,6.0,NE,8.1,-,N/A,,Overcast,50,2013-01-15 00:53:00
5:53 PM,34.0,33.1,96,30.52,6.0,NE,9.2,-,N/A,,Overcast,50,2013-01-15 01:53:00
6:33 PM,33.8,33.8,100,30.52,8.0,NE,6.9,-,N/A,,Overcast,50,2013-01-15 02:33:00
6:53 PM,35.1,33.1,92,30.53,7.0,NE,5.8,-,N/A,,Overcast,50,2013-01-15 02:53:00
7:31 PM,35.6,33.8,93,30.53,6.0,NE,8.1,-,N/A,,Overcast,50,2013-01-15 03:31:00
7:53 PM,35.1,34.0,96,30.54,9.0,ENE,5.8,-,N/A,,Overcast,70,2013-01-15 03:53:00
8:53 PM,34.0,34.0,100,30.54,6.0,ENE,6.9,-,N/A,,Overcast,70,2013-01-15 04:53:00
9:53 PM,35.1,34.0,96,30.55,9.0,ENE,5.8,-,N/A,,Overcast,60,2013-01-15 05:53:00
10:53 PM,35.1,34.0,96,30.56,7.0,NE,6.9,-,N/A,,Overcast,50,2013-01-15 06:53:00
11:51 PM,35.6,33.8,93,30.55,10.0,NE,5.8,-,N/A,,Overcast,40,2013-01-15 07:51:00
11:53 PM,35.1,33.1,92,30.56,10.0,NE,4.6,-,N/A,,Overcast,50,2013-01-15 07:53:00